Have a Safe July 4th! 

Flight Track Log - Related Links

Times and Time Zones

All times are in EDT time to prevent confusion due to time zone crossing. See the TMC420 flight status page for this flight to view local times or setup timezone preferences in your user account.

Time Position Orientation Groundspeed Altitude Reporting Facility
EDT Latitude Longitude Course Direction KTS MPH feet Rate Location/Type
Sun 06:08:50 PM 42.6494 -83.5361 259° West 204 235 5,000  Level Cleveland Center
Sun 06:09:51 PM 42.6061 -83.5989 227° Southwest 250 288 5,900 2,361 Climbing Cleveland Center
Sun 06:10:52 PM 42.5689 -83.6733 236° Southwest 242 278 9,800 3,415 Climbing Cleveland Center
Sun 06:11:54 PM 42.5206 -83.7556 231° Southwest 279 321 12,900 1,524 Climbing Cleveland Center
Sun 06:12:58 PM 42.4664 -83.8372 228° Southwest 293 337 13,000 -145 Climbing Cleveland Center
Sun 06:13:58 PM 42.4242 -83.9222 236° Southwest 288 331 12,600 -500 Descending Cleveland Center
Sun 06:14:58 PM 42.3758 -84.0039 231° Southwest 288 331 12,000 -300 Descending Cleveland Center
Sun 06:15:58 PM 42.3275 -84.0856 231° Southwest 288 331 12,000 -50 Level Cleveland Center
Sun 06:16:58 PM 42.2792 -84.1672 231° Southwest 288 331 11,900 -50 Descending Cleveland Center
Sun 06:17:58 PM 42.2594 -84.2644 255° West 280 322 11,900  Level Cleveland Center
Sun 06:18:58 PM 42.2564 -84.3622 268° West 264 304 11,900  Level Cleveland Center
Sun 06:19:58 PM 42.2572 -84.4633 271° West 264 304 11,900 32 Level Cleveland Center
Sun 06:22:03 PM 42.2461 -84.6683 266° West 264 304 12,000 32 Climbing Chicago Center
Sun 06:23:05 PM 42.2394 -84.7644 265° West 260 299 12,000  Level Chicago Center
Sun 06:24:07 PM 42.2403 -84.8600 271° West 256 295 12,000  Level Chicago Center
Sun 06:25:09 PM 42.2403 -84.9700 270° West 248 285 12,000  Level Chicago Center
Sun 06:26:11 PM 42.2400 -85.0586 270° West 240 276 12,000  Level Chicago Center
Sun 06:27:13 PM 42.2397 -85.1400 270° West 226 260 12,000 -48 Level Chicago Center
Sun 06:28:15 PM 42.2392 -85.2194 269° West 216 249 11,900 -290 Descending Chicago Center
Sun 06:29:17 PM 42.2381 -85.3000 269° West 215 247 11,400 -435 Descending Chicago Center
Sun 06:30:19 PM 42.2267 -85.3853 260° West 231 266 11,000 -774 Descending Chicago Center
Sun 06:31:21 PM 42.2128 -85.4894 260° West 236 272 9,800 -1,016 Descending Chicago Center
Sun 06:32:23 PM 42.2056 -85.5611 262° West 225 259 8,900 -823 Descending Chicago Center
Sun 06:33:25 PM 42.1981 -85.6319 262° West 203 234 8,100 -484 Descending Chicago Center
Sun 06:34:27 PM 42.1314 -85.6814 209° Southwest 231 266 7,900 -629 Descending Chicago Center
Sun 06:35:29 PM 42.0747 -85.7200 207° Southwest 231 266 6,800 -864 Descending Chicago Center
Sun 06:36:32 PM 42.0189 -85.7550 205° Southwest 225 259 6,100 -816 Descending Chicago Center
Sun 06:37:34 PM 41.9653 -85.7872 204° Southwest 216 249 5,100 -919 Descending Chicago Center
Sun 06:38:36 PM 41.9111 -85.8269 209° Southwest 220 253 4,200 -968 Descending Chicago Center
Sun 06:39:38 PM 41.8558 -85.8694 210° Southwest 227 261 3,100 -774 Descending Chicago Center
Sun 06:40:40 PM 41.7911 -85.9114 206° Southwest 223 257 2,600 -387 Descending Chicago Center
Sun 06:41:42 PM 41.7431 -85.9306 197° South 202 232 2,300 -532 Descending Chicago Center
Sun 06:42:44 PM 41.7206 -85.9664 230° Southwest 164 189 1,500 -484 Descending Chicago Center
Sun 06:43:46 PM 41.7214 -86.0083 272° West 154 177 1,300 -194 Descending Chicago Center

Login

Don't have an account? Register now (free) for customized features, flight alerts, and more!